Time;durP1;ratioP1;P1;durP2;ratioP2;P2;SDS_P1;SDS_P2;PMS_P1;PMS_P2;Temp;Humidity;BMP_temperature;BMP_pressure;BME280_temperature;BME280_humidity;BME280_pressure;Samples;Min_cycle;Max_cycle;Signal;HPM_P1;HPM_P2
2022/10/15 00:02:18;;;;;;;133.13;52.92;;;;;;;;;;5052893;28;20378;-63
2022/10/15 00:04:43;;;;;;;200.32;59.33;;;11.80;99.90;;;;;;5052830;28;20040;-63
2022/10/15 00:07:11;;;;;;;158.93;54.90;;;11.80;99.90;;;;;;5056359;28;20049;-63
2022/10/15 00:09:37;;;;;;;262.38;65.10;;;12.20;99.90;;;;;;5056748;28;20037;-63
2022/10/15 00:12:03;;;;;;;226.48;60.00;;;11.80;99.90;;;;;;5055180;28;20045;-63
2022/10/15 00:14:32;;;;;;;282.58;70.20;;;;;;;;;;5056456;28;20124;-63
2022/10/15 00:17:02;;;;;;;285.70;67.90;;;;;;;;;;5056348;28;20047;-63
2022/10/15 00:19:29;;;;;;;467.60;77.40;;;;;;;;;;5056376;28;20083;-63
2022/10/15 00:21:58;;;;;;;225.77;66.35;;;11.80;99.90;;;;;;5056701;28;20151;-63
2022/10/15 00:24:24;;;;;;;448.75;83.68;;;12.00;99.90;;;;;;5056020;28;20061;-62
2022/10/15 00:26:49;;;;;;;486.00;85.28;;;12.00;99.90;;;;;;5056030;28;20051;-63
2022/10/15 00:29:15;;;;;;;268.17;69.70;;;11.40;99.90;;;;;;5054855;28;20123;-63
2022/10/15 00:31:41;;;;;;;336.42;77.47;;;12.40;99.90;;;;;;5056333;28;20434;-63
2022/10/15 00:34:10;;;;;;;259.45;73.75;;;11.30;99.90;;;;;;5056198;28;20037;-63
2022/10/15 00:36:36;;;;;;;213.68;67.53;;;12.00;99.90;;;;;;5056050;28;20045;-63
2022/10/15 00:39:03;;;;;;;211.30;69.75;;;12.10;99.90;;;;;;5056016;28;20077;-63
2022/10/15 00:41:39;;;;;;;316.67;79.60;;;11.80;99.90;;;;;;5055930;28;20123;-63
2022/10/15 00:44:23;;;;;;;252.02;73.55;;;12.80;99.90;;;;;;5056074;28;20448;-64
2022/10/15 00:46:53;;;;;;;497.90;88.55;;;12.30;99.90;;;;;;5054643;28;20067;-63
2022/10/15 00:49:32;;;;;;;295.88;75.80;;;12.10;99.90;;;;;;5055809;28;20090;-63
2022/10/15 00:52:05;;;;;;;370.25;77.47;;;12.20;99.90;;;;;;5056039;28;20069;-63
2022/10/15 00:54:36;;;;;;;314.48;76.00;;;12.10;99.90;;;;;;5054774;28;20056;-63
2022/10/15 00:57:04;;;;;;;281.02;73.28;;;11.90;99.90;;;;;;5056223;28;20048;-63
2022/10/15 00:59:32;;;;;;;253.40;73.15;;;12.30;99.90;;;;;;5055399;28;20443;-63
2022/10/15 01:02:00;;;;;;;351.55;83.68;;;12.00;99.90;;;;;;5055579;28;20504;-63
2022/10/15 01:04:27;;;;;;;300.60;79.22;;;12.40;99.90;;;;;;5055425;28;20049;-58
2022/10/15 01:06:53;;;;;;;387.85;82.45;;;12.50;99.90;;;;;;5055495;28;20044;-58
2022/10/15 01:09:22;;;;;;;269.70;75.18;;;12.30;99.90;;;;;;5055432;28;20052;-58
2022/10/15 01:11:57;;;;;;;374.02;80.53;;;12.30;99.90;;;;;;5055915;28;20037;-58
2022/10/15 01:15:10;;;;;;;288.02;72.00;;;12.00;99.90;;;;;;5055280;28;20057;-58
2022/10/15 01:17:43;;;;;;;359.80;79.63;;;12.00;99.90;;;;;;5050280;28;20118;-58
2022/10/15 01:20:30;;;;;;;274.08;68.65;;;11.90;99.90;;;;;;5054388;28;20055;-58
2022/10/15 01:23:33;;;;;;;325.00;75.32;;;12.10;99.90;;;;;;5055025;28;20060;-58
2022/10/15 01:26:08;;;;;;;483.95;86.30;;;12.00;99.90;;;;;;5054130;28;20037;-58
2022/10/15 01:28:55;;;;;;;340.45;71.28;;;12.20;99.90;;;;;;5055161;28;20036;-58
2022/10/15 01:31:51;;;;;;;271.92;68.57;;;12.10;99.90;;;;;;5055273;28;20071;-58
2022/10/15 01:34:32;;;;;;;;;;;12.00;99.90;;;;;;5055768;28;20116;-58
2022/10/15 01:37:10;;;;;;;436.23;74.57;;;12.80;99.90;;;;;;5055096;28;19916;-58
2022/10/15 01:39:43;;;;;;;349.98;71.13;;;12.00;99.90;;;;;;5054873;28;20482;-58
2022/10/15 01:42:42;;;;;;;354.33;73.90;;;11.90;99.90;;;;;;5054136;28;20059;-58
2022/10/15 01:45:24;;;;;;;347.95;74.55;;;11.80;99.90;;;;;;5042207;28;20485;-58
2022/10/15 01:47:54;;;;;;;375.92;74.95;;;12.00;99.90;;;;;;5054718;28;20404;-58
2022/10/15 01:50:24;;;;;;;352.40;73.25;;;11.90;99.90;;;;;;5053494;28;20048;-57
2022/10/15 01:52:51;;;;;;;310.15;70.63;;;11.80;99.90;;;;;;5054794;28;20123;-58
2022/10/15 01:55:20;;;;;;;380.13;79.82;;;12.10;99.90;;;;;;5054847;28;20064;-58
2022/10/15 01:57:47;;;;;;;244.77;65.97;;;11.80;99.90;;;;;;5054395;28;20045;-58
2022/10/15 02:00:14;;;;;;;263.50;64.63;;;12.40;99.90;;;;;;5053333;28;20041;-58
2022/10/15 02:02:43;;;;;;;269.42;67.13;;;11.40;99.90;;;;;;5054369;28;20037;-58
2022/10/15 02:05:19;;;;;;;335.70;69.10;;;12.40;99.90;;;;;;5037301;28;20370;-58
2022/10/15 02:08:17;;;;;;;229.15;63.13;;;12.40;99.90;;;;;;5054549;28;20048;-58
2022/10/15 02:11:01;;;;;;;272.65;66.95;;;11.90;99.90;;;;;;5054383;28;20037;-58
2022/10/15 02:13:45;;;;;;;305.60;71.57;;;11.70;99.90;;;;;;5054529;28;20069;-58
2022/10/15 02:16:53;;;;;;;280.67;66.70;;;12.20;99.90;;;;;;5054206;28;20558;-58
2022/10/15 02:19:48;;;;;;;201.25;60.90;;;11.90;99.90;;;;;;5053122;28;20124;-58
2022/10/15 02:22:18;;;;;;;203.30;60.72;;;12.30;99.90;;;;;;5054393;28;20080;-58
2022/10/15 02:24:54;;;;;;;190.05;58.15;;;11.80;99.90;;;;;;5053952;28;20414;-58
2022/10/15 02:27:20;;;;;;;173.88;56.25;;;;;;;;;;5053937;28;20481;-58
2022/10/15 02:29:50;;;;;;;220.20;60.80;;;11.80;99.90;;;;;;5053670;28;20052;-58
2022/10/15 02:32:18;;;;;;;161.75;55.58;;;11.10;99.90;;;;;;5054075;28;20432;-58
2022/10/15 02:34:45;;;;;;;156.07;54.90;;;11.80;99.90;;;;;;5054029;28;20045;-57
2022/10/15 02:37:13;;;;;;;135.43;51.38;;;;;;;;;;5052756;28;20048;-58
2022/10/15 02:39:39;;;;;;;145.60;51.50;;;11.60;99.90;;;;;;5053800;28;20451;-58
2022/10/15 02:42:05;;;;;;;195.50;58.50;;;11.70;99.90;;;;;;5053632;28;20116;-58
2022/10/15 02:44:31;;;;;;;176.95;56.53;;;;;;;;;;5053930;28;20080;-58
2022/10/15 02:46:58;;;;;;;168.05;55.13;;;11.70;99.90;;;;;;5053880;28;20112;-58
2022/10/15 02:49:24;;;;;;;197.95;58.90;;;11.70;99.90;;;;;;5053698;28;20120;-58
2022/10/15 02:51:51;;;;;;;184.02;57.15;;;11.90;99.90;;;;;;5053453;28;20132;-58
2022/10/15 02:54:17;;;;;;;196.27;58.60;;;11.80;99.90;;;;;;5053376;28;20037;-58
2022/10/15 02:56:46;;;;;;;172.98;56.03;;;11.90;99.90;;;;;;5053401;28;20098;-58
2022/10/15 02:59:12;;;;;;;183.88;58.70;;;11.30;99.90;;;;;;5053586;28;20048;-58
2022/10/15 03:01:39;;;;;;;181.52;58.00;;;11.70;99.90;;;;;;5053546;28;20033;-58
2022/10/15 03:04:05;;;;;;;166.73;55.33;;;11.70;99.90;;;;;;5053478;28;20396;-58
2022/10/15 03:06:31;;;;;;;180.20;56.33;;;11.80;99.90;;;;;;5053418;28;20396;-59
2022/10/15 03:08:59;;;;;;;177.88;58.42;;;11.80;99.90;;;;;;5053431;28;20120;-58
2022/10/15 03:11:25;;;;;;;169.13;56.13;;;;;;;;;;5053071;28;20049;-58
2022/10/15 03:13:53;;;;;;;177.38;57.97;;;12.00;99.90;;;;;;5052499;28;20055;-58
2022/10/15 03:16:21;;;;;;;151.32;54.28;;;11.80;99.90;;;;;;5051998;28;20041;-58
2022/10/15 03:18:47;;;;;;;140.68;53.60;;;11.80;99.90;;;;;;5053041;28;20045;-58
2022/10/15 03:21:13;;;;;;;142.73;53.70;;;11.70;99.90;;;;;;5053207;28;20112;-58
2022/10/15 03:23:39;;;;;;;144.48;52.58;;;11.70;99.90;;;;;;5052625;28;20084;-57
2022/10/15 03:26:10;;;;;;;155.70;54.17;;;11.50;99.90;;;;;;5053339;28;20041;-58
2022/10/15 03:28:35;;;;;;;168.38;56.38;;;12.00;99.90;;;;;;5052240;28;20497;-58
2022/10/15 03:31:01;;;;;;;139.15;52.00;;;11.90;99.90;;;;;;5053226;28;20052;-57
2022/10/15 03:33:27;;;;;;;125.70;50.25;;;11.70;99.90;;;;;;5052272;28;20048;-58
2022/10/15 03:35:53;;;;;;;123.47;49.90;;;11.60;99.90;;;;;;5051712;28;20057;-57
2022/10/15 03:38:19;;;;;;;134.30;50.80;;;11.40;99.90;;;;;;5052835;28;20405;-58
2022/10/15 03:40:45;;;;;;;131.90;50.15;;;11.90;99.90;;;;;;5054470;28;20036;-58
2022/10/15 03:43:12;;;;;;;111.85;48.92;;;11.50;99.90;;;;;;5056993;28;20053;-58
2022/10/15 03:45:39;;;;;;;121.55;49.22;;;11.60;99.90;;;;;;5057438;28;20112;-58
2022/10/15 03:48:07;;;;;;;119.88;48.88;;;11.70;99.90;;;;;;5057093;28;20034;-58
2022/10/15 03:50:33;;;;;;;117.53;48.30;;;12.50;99.90;;;;;;5056950;28;20099;-58
2022/10/15 03:53:01;;;;;;;113.35;47.75;;;11.70;99.90;;;;;;5056821;28;20040;-57
2022/10/15 03:55:26;;;;;;;116.15;48.40;;;11.40;99.90;;;;;;5057070;28;20059;-58
2022/10/15 03:57:52;;;;;;;107.75;45.58;;;11.40;99.90;;;;;;5056966;28;20044;-58
2022/10/15 04:00:21;;;;;;;105.97;46.03;;;11.50;99.90;;;;;;5057042;28;20094;-58
2022/10/15 04:02:50;;;;;;;114.13;47.28;;;11.60;99.90;;;;;;5056776;28;20044;-58
2022/10/15 04:05:17;;;;;;;112.75;47.47;;;11.50;99.90;;;;;;5056635;28;20040;-58
2022/10/15 04:07:43;;;;;;;101.03;44.55;;;;;;;;;;5056586;28;20443;-58
2022/10/15 04:10:09;;;;;;;105.90;44.85;;;11.50;99.90;;;;;;5056651;28;20459;-58
2022/10/15 04:12:35;;;;;;;107.70;46.92;;;11.90;99.90;;;;;;5056689;28;20117;-58
2022/10/15 04:15:02;;;;;;;113.38;46.13;;;11.50;99.90;;;;;;5055088;28;20049;-58
2022/10/15 04:17:29;;;;;;;98.05;43.92;;;11.40;99.90;;;;;;5056263;28;20411;-58
2022/10/15 04:20:03;;;;;;;89.50;42.05;;;10.60;99.90;;;;;;5056095;28;20049;-58
2022/10/15 04:22:29;;;;;;;94.25;42.88;;;11.50;99.90;;;;;;5056424;28;20109;-58
2022/10/15 04:24:56;;;;;;;92.63;41.80;;;11.30;99.90;;;;;;5056225;28;20520;-58
2022/10/15 04:27:25;;;;;;;100.57;44.45;;;11.50;99.90;;;;;;5056324;28;20043;-58
2022/10/15 04:29:51;;;;;;;94.30;42.53;;;;;;;;;;5056166;28;20041;-58
2022/10/15 04:32:20;;;;;;;93.70;42.33;;;12.30;99.90;;;;;;5056224;28;20095;-58
2022/10/15 04:34:46;;;;;;;99.20;43.67;;;12.30;99.90;;;;;;5056057;28;20080;-58
2022/10/15 04:37:21;;;;;;;99.80;44.85;;;11.80;99.90;;;;;;5056588;28;20128;-58
2022/10/15 04:39:47;;;;;;;88.93;42.97;;;11.30;99.90;;;;;;5056410;28;20037;-58
2022/10/15 04:42:13;;;;;;;92.45;42.08;;;11.60;99.90;;;;;;5055911;28;20047;-58
2022/10/15 04:44:39;;;;;;;90.50;42.13;;;11.60;99.90;;;;;;5056101;28;20477;-58
2022/10/15 04:47:04;;;;;;;81.45;41.03;;;11.30;99.90;;;;;;5055892;28;20124;-58
2022/10/15 04:49:32;;;;;;;86.30;41.47;;;11.60;99.90;;;;;;5055840;28;20084;-58
2022/10/15 04:51:57;;;;;;;79.97;39.72;;;11.30;99.90;;;;;;5054635;28;20308;-58
2022/10/15 04:54:23;;;;;;;89.03;41.65;;;11.60;99.90;;;;;;5055810;28;20045;-58
2022/10/15 04:56:49;;;;;;;81.03;39.72;;;11.40;99.90;;;;;;5055964;28;20055;-58
2022/10/15 04:59:15;;;;;;;90.88;41.78;;;11.20;99.90;;;;;;5055674;28;20040;-58
2022/10/15 05:01:43;;;;;;;80.15;39.33;;;11.10;99.90;;;;;;5054391;28;20423;-58
2022/10/15 05:04:12;;;;;;;96.85;40.92;;;11.20;99.90;;;;;;5054582;28;20041;-58
2022/10/15 05:06:38;;;;;;;95.68;42.35;;;10.90;99.90;;;;;;5055722;28;20404;-58
2022/10/15 05:09:04;;;;;;;98.63;42.50;;;11.40;99.90;;;;;;5055563;28;20094;-58
2022/10/15 05:11:37;;;;;;;87.43;40.95;;;11.70;99.90;;;;;;5055894;28;20477;-57
2022/10/15 05:14:03;;;;;;;93.38;43.00;;;10.90;99.90;;;;;;5055321;28;20083;-58
2022/10/15 05:16:32;;;;;;;99.72;44.35;;;11.10;99.90;;;;;;5055527;28;20397;-58
2022/10/15 05:19:05;;;;;;;105.93;45.60;;;11.00;99.90;;;;;;5055417;28;20094;-58
2022/10/15 05:21:32;;;;;;;94.93;42.47;;;10.70;99.90;;;;;;5055435;28;20094;-58
2022/10/15 05:23:59;;;;;;;101.38;44.30;;;10.70;99.90;;;;;;5055254;28;20106;-58
2022/10/15 05:26:27;;;;;;;116.85;47.25;;;10.80;99.90;;;;;;5055144;28;20044;-58
2022/10/15 05:28:57;;;;;;;105.25;43.80;;;11.70;99.90;;;;;;5054971;28;20059;-58
2022/10/15 05:31:27;;;;;;;118.03;45.33;;;10.80;99.90;;;;;;5055327;28;20076;-58
2022/10/15 05:33:53;;;;;;;118.13;45.55;;;10.20;99.90;;;;;;5053745;28;20036;-58
2022/10/15 05:36:26;;;;;;;103.47;43.90;;;10.70;99.90;;;;;;5054955;28;20128;-58
2022/10/15 05:38:54;;;;;;;115.38;44.50;;;10.50;99.90;;;;;;5054901;28;20041;-57
2022/10/15 05:41:20;;;;;;;129.80;50.45;;;11.90;99.90;;;;;;5054797;28;20041;-58
2022/10/15 05:43:47;;;;;;;105.30;44.42;;;10.70;99.90;;;;;;5055032;28;20033;-58
2022/10/15 05:46:14;;;;;;;129.57;46.47;;;10.50;99.90;;;;;;5053924;28;20037;-58
2022/10/15 05:48:41;;;;;;;133.18;48.72;;;10.50;99.90;;;;;;5054901;28;20106;-57
2022/10/15 05:51:11;;;;;;;133.45;51.95;;;10.60;99.90;;;;;;5054782;28;20041;-62
2022/10/15 05:53:38;;;;;;;127.80;48.38;;;10.70;99.90;;;;;;5054568;28;20048;-62
2022/10/15 05:56:07;;;;;;;131.77;51.05;;;11.70;99.90;;;;;;5054880;28;20448;-62
2022/10/15 05:58:34;;;;;;;145.73;53.05;;;10.80;99.90;;;;;;5054690;28;20049;-62
2022/10/15 06:01:02;;;;;;;145.82;55.03;;;10.80;99.90;;;;;;5054912;28;20040;-62
2022/10/15 06:03:28;;;;;;;119.13;45.05;;;11.70;99.90;;;;;;5052898;28;20370;-62
2022/10/15 06:05:54;;;;;;;161.15;56.10;;;10.00;99.90;;;;;;5054354;28;20041;-62
2022/10/15 06:08:21;;;;;;;169.55;58.30;;;10.90;99.90;;;;;;5054160;28;20045;-62
2022/10/15 06:10:47;;;;;;;137.20;53.05;;;10.80;99.90;;;;;;5054446;28;20120;-62
2022/10/15 06:13:13;;;;;;;161.73;55.00;;;11.10;99.90;;;;;;5054213;28;20110;-62
2022/10/15 06:15:44;;;;;;;169.15;57.30;;;10.90;99.90;;;;;;5054292;28;20033;-62
2022/10/15 06:18:15;;;;;;;157.73;55.28;;;10.90;99.90;;;;;;5054094;28;20048;-62
2022/10/15 06:20:49;;;;;;;152.80;54.70;;;10.80;99.90;;;;;;5054156;28;20037;-62
2022/10/15 06:23:23;;;;;;;162.85;50.75;;;10.30;99.90;;;;;;5052856;28;20428;-62
2022/10/15 06:25:49;;;;;;;188.23;61.13;;;;;;;;;;5053905;28;20044;-63
2022/10/15 06:28:19;;;;;;;175.30;55.65;;;12.10;99.90;;;;;;5051550;28;20049;-63
2022/10/15 06:30:50;;;;;;;156.70;57.10;;;11.20;99.90;;;;;;5053952;28;20041;-57
2022/10/15 06:33:16;;;;;;;161.18;55.95;;;;;;;;;;5053748;28;20044;-57
2022/10/15 06:35:42;;;;;;;150.82;56.00;;;11.20;99.90;;;;;;5053902;28;20036;-57
2022/10/15 06:38:08;;;;;;;156.18;56.53;;;11.50;99.90;;;;;;5052617;28;20033;-57
2022/10/15 06:40:34;;;;;;;164.13;56.90;;;;;;;;;;5054056;28;20037;-57
2022/10/15 06:43:09;;;;;;;168.50;59.17;;;11.20;99.90;;;;;;5053569;28;20044;-57
2022/10/15 06:45:41;;;;;;;149.57;53.22;;;11.70;99.90;;;;;;5052816;28;20504;-58
2022/10/15 06:48:08;;;;;;;149.07;57.03;;;11.40;99.90;;;;;;5053520;28;20045;-58
2022/10/15 06:50:36;;;;;;;148.10;57.42;;;11.80;99.90;;;;;;5053815;28;20047;-57
2022/10/15 06:53:03;;;;;;;140.13;54.60;;;11.70;99.90;;;;;;5053498;28;20124;-58
2022/10/15 06:55:32;;;;;;;136.27;55.05;;;12.10;99.90;;;;;;5053373;28;20079;-58
2022/10/15 06:58:02;;;;;;;141.45;54.55;;;11.80;99.90;;;;;;5053129;28;20076;-58
2022/10/15 07:00:28;;;;;;;150.18;56.97;;;12.20;99.90;;;;;;5052961;28;20112;-57
2022/10/15 07:02:54;;;;;;;130.75;53.38;;;12.50;99.90;;;;;;5053487;28;20464;-58
2022/10/15 07:05:20;;;;;;;135.13;53.13;;;11.70;99.90;;;;;;5052971;28;20389;-57
2022/10/15 07:07:55;;;;;;;117.63;51.45;;;12.00;99.90;;;;;;5052044;28;20132;-57
2022/10/15 07:10:24;;;;;;;116.00;50.37;;;12.00;99.90;;;;;;5052027;28;20556;-57
2022/10/15 07:12:50;;;;;;;123.03;51.45;;;;;;;;;;5053099;28;20043;-58
2022/10/15 07:15:18;;;;;;;108.97;49.33;;;12.10;99.90;;;;;;5047385;28;20125;-58
2022/10/15 07:17:49;;;;;;;118.65;50.50;;;12.20;99.90;;;;;;5043064;28;20403;-58
2022/10/15 07:20:16;;;;;;;130.98;52.63;;;;;;;;;;5052294;28;20111;-58
2022/10/15 07:22:43;;;;;;;114.22;50.08;;;;;;;;;;5051867;28;20044;-58
2022/10/15 07:25:11;;;;;;;127.75;52.90;;;12.40;99.90;;;;;;5052173;28;20048;-58
2022/10/15 07:27:38;;;;;;;110.78;49.92;;;12.20;99.90;;;;;;5051963;28;20056;-58
2022/10/15 07:30:05;;;;;;;109.53;50.67;;;12.30;99.90;;;;;;5051725;28;20235;-57
2022/10/15 07:32:37;;;;;;;113.22;51.83;;;12.70;99.90;;;;;;5052211;28;20045;-57
2022/10/15 07:35:06;;;;;;;103.32;49.38;;;12.90;99.90;;;;;;5051780;28;20057;-57
2022/10/15 07:37:32;;;;;;;99.93;48.33;;;12.90;99.90;;;;;;5052140;28;20040;-57
2022/10/15 07:40:02;;;;;;;96.25;49.20;;;12.70;99.90;;;;;;5051524;28;20060;-57
2022/10/15 07:42:28;;;;;;;88.63;47.47;;;12.90;99.90;;;;;;5052052;28;20040;-57
2022/10/15 07:44:53;;;;;;;86.85;47.22;;;12.40;99.90;;;;;;5050818;28;20052;-58
2022/10/15 07:47:19;;;;;;;81.93;45.65;;;13.40;99.90;;;;;;5052308;28;20049;-58
2022/10/15 07:49:45;;;;;;;86.00;45.53;;;;;;;;;;5051584;28;20506;-58
2022/10/15 07:52:12;;;;;;;81.00;45.33;;;13.00;99.90;;;;;;5052053;28;20033;-58
2022/10/15 07:54:49;;;;;;;77.22;44.25;;;13.20;99.90;;;;;;5051807;28;20051;-58
2022/10/15 07:57:17;;;;;;;73.88;44.00;;;13.10;99.90;;;;;;5051541;28;20041;-58
2022/10/15 07:59:49;;;;;;;76.50;44.05;;;13.20;99.90;;;;;;5052721;28;20045;-58
2022/10/15 08:02:18;;;;;;;83.95;45.85;;;13.20;99.90;;;;;;5052796;28;20048;-58
2022/10/15 08:04:47;;;;;;;76.50;44.38;;;13.20;99.90;;;;;;5052789;28;20037;-58
2022/10/15 08:07:13;;;;;;;71.25;43.10;;;;;;;;;;5052596;28;20382;-58
2022/10/15 08:09:41;;;;;;;78.68;45.03;;;13.70;99.90;;;;;;5052845;28;20443;-58
2022/10/15 08:12:07;;;;;;;73.15;43.95;;;;;;;;;;5052889;28;20039;-58
2022/10/15 08:14:37;;;;;;;68.93;42.28;;;13.90;99.90;;;;;;5052660;28;20470;-58
2022/10/15 08:17:04;;;;;;;70.30;44.30;;;14.10;99.90;;;;;;5052635;28;20551;-58
2022/10/15 08:19:32;;;;;;;73.13;44.63;;;13.70;99.90;;;;;;5034715;28;20120;-59
2022/10/15 08:21:58;;;;;;;75.68;44.55;;;13.80;99.90;;;;;;5052874;28;20069;-58
2022/10/15 08:24:29;;;;;;;70.57;43.50;;;;;;;;;;5052019;28;20085;-58
2022/10/15 08:26:57;;;;;;;75.45;45.70;;;13.80;99.90;;;;;;5053163;28;20135;-58
2022/10/15 08:29:23;;;;;;;73.95;44.25;;;14.00;99.90;;;;;;5056331;28;20124;-58
2022/10/15 08:31:50;;;;;;;70.63;43.28;;;14.00;99.90;;;;;;5020793;28;20052;-59
2022/10/15 08:34:18;;;;;;;77.07;45.33;;;14.20;99.90;;;;;;5056000;28;20047;-58
2022/10/15 08:36:47;;;;;;;72.60;44.60;;;14.20;99.90;;;;;;5056308;28;20099;-58
2022/10/15 08:39:24;;;;;;;72.78;44.25;;;14.30;99.90;;;;;;5056171;28;20041;-58
2022/10/15 08:41:57;;;;;;;65.90;42.80;;;14.30;99.90;;;;;;5056013;28;20033;-58
2022/10/15 08:44:36;;;;;;;67.30;41.75;;;14.50;99.90;;;;;;5055108;28;20047;-58
2022/10/15 08:47:18;;;;;;;68.43;42.03;;;14.60;99.90;;;;;;5055887;28;20044;-58
2022/10/15 08:49:59;;;;;;;61.63;38.88;;;14.70;99.90;;;;;;5056160;28;20121;-58
2022/10/15 08:52:43;;;;;;;56.22;37.95;;;14.50;99.90;;;;;;5054541;28;20080;-58
2022/10/15 08:55:15;;;;;;;59.17;38.88;;;14.00;99.90;;;;;;5055672;28;20044;-58
2022/10/15 08:58:13;;;;;;;58.03;36.60;;;14.50;99.90;;;;;;5051339;28;20103;-58
2022/10/15 09:00:52;;;;;;;59.60;37.88;;;14.30;99.90;;;;;;5035865;28;20044;-58
2022/10/15 09:03:30;;;;;;;67.32;37.33;;;14.20;99.90;;;;;;5035598;28;20099;-58
2022/10/15 09:06:14;;;;;;;59.58;36.67;;;14.30;99.90;;;;;;5035759;28;20124;-58
2022/10/15 09:09:21;;;;;;;59.70;38.03;;;14.10;99.90;;;;;;5034544;28;20125;-58
2022/10/15 09:12:06;;;;;;;66.20;39.35;;;14.00;99.90;;;;;;5035361;28;20049;-58
2022/10/15 09:14:40;;;;;;;69.50;39.50;;;13.70;99.90;;;;;;5035463;28;20056;-58
2022/10/15 09:17:18;;;;;;;75.53;41.90;;;14.10;99.90;;;;;;5035485;28;20056;-58
2022/10/15 09:19:45;;;;;;;73.07;40.97;;;13.60;99.90;;;;;;5034482;28;20098;-58
2022/10/15 09:22:17;;;;;;;79.25;41.60;;;14.00;99.90;;;;;;5034753;28;20045;-58
2022/10/15 09:24:44;;;;;;;72.20;40.90;;;13.70;99.90;;;;;;5034122;28;20124;-58
2022/10/15 09:27:36;;;;;;;77.82;42.20;;;13.50;99.90;;;;;;5034493;28;20088;-58
2022/10/15 09:30:19;;;;;;;85.85;42.88;;;13.60;99.90;;;;;;5035179;28;20040;-58
2022/10/15 09:32:48;;;;;;;80.07;41.92;;;13.50;99.90;;;;;;5035283;28;20067;-58
2022/10/15 09:35:37;;;;;;;87.80;42.15;;;13.80;99.90;;;;;;5037409;28;20547;-59
2022/10/15 09:38:23;;;;;;;83.57;42.67;;;13.50;99.90;;;;;;5044499;28;20033;-58
2022/10/15 09:41:27;;;;;;;85.20;42.28;;;13.30;99.90;;;;;;5045337;28;20564;-58
2022/10/15 09:43:57;;;;;;;79.85;40.92;;;13.50;99.90;;;;;;5045626;28;20044;-58
2022/10/15 09:46:23;;;;;;;79.88;40.38;;;13.30;99.90;;;;;;5035002;28;20041;-58
2022/10/15 09:49:08;;;;;;;69.13;38.53;;;13.50;99.90;;;;;;5035485;28;20057;-58
2022/10/15 09:51:53;;;;;;;72.05;38.85;;;13.40;99.90;;;;;;5045627;28;20044;-58
2022/10/15 09:54:37;;;;;;;74.78;39.92;;;13.80;99.90;;;;;;5054816;28;20037;-58
2022/10/15 09:57:06;;;;;;;69.57;38.30;;;13.30;99.90;;;;;;5054836;28;20037;-58
2022/10/15 09:59:33;;;;;;;72.82;38.33;;;13.60;99.90;;;;;;5054335;28;20485;-58
2022/10/15 10:02:03;;;;;;;70.38;37.55;;;13.80;99.90;;;;;;5054329;28;20032;-58
2022/10/15 10:04:32;;;;;;;69.10;37.55;;;13.70;99.90;;;;;;5053315;28;20051;-58
2022/10/15 10:07:02;;;;;;;58.60;34.75;;;13.90;99.90;;;;;;5054243;28;20052;-58
2022/10/15 10:09:36;;;;;;;52.05;31.60;;;13.80;99.90;;;;;;5053416;28;20045;-58
2022/10/15 10:12:05;;;;;;;56.78;33.53;;;13.90;99.90;;;;;;5054260;28;20036;-58
2022/10/15 10:14:35;;;;;;;53.33;32.17;;;13.80;99.90;;;;;;5054382;28;20417;-58
2022/10/15 10:17:17;;;;;;;50.15;30.85;;;14.10;99.90;;;;;;5054145;28;20527;-58
2022/10/15 10:19:44;;;;;;;46.50;29.15;;;14.10;99.90;;;;;;5054134;28;20505;-58
2022/10/15 10:22:15;;;;;;;50.38;30.55;;;14.20;99.90;;;;;;5052905;28;20048;-58
2022/10/15 10:24:40;;;;;;;42.22;28.60;;;14.20;99.90;;;;;;5053380;28;20080;-58
2022/10/15 10:27:28;;;;;;;44.70;28.98;;;14.30;99.90;;;;;;5055968;28;20531;-58
2022/10/15 10:30:02;;;;;;;43.70;28.23;;;14.40;99.90;;;;;;5062436;28;20552;-58
2022/10/15 10:32:33;;;;;;;40.58;27.00;;;14.40;99.90;;;;;;5052677;28;20037;-58
2022/10/15 10:35:01;;;;;;;42.10;27.00;;;14.10;99.90;;;;;;5053849;28;20393;-58
2022/10/15 10:37:27;;;;;;;40.80;26.55;;;14.60;99.90;;;;;;5054038;28;20084;-58
2022/10/15 10:40:00;;;;;;;39.30;25.00;;;14.40;99.90;;;;;;5054064;28;20041;-58
2022/10/15 10:42:37;;;;;;;34.72;24.33;;;15.10;99.90;;;;;;5056126;28;20478;-58
2022/10/15 10:45:28;;;;;;;36.17;25.33;;;14.40;99.90;;;;;;5045890;28;20072;-58
2022/10/15 10:47:54;;;;;;;34.70;23.15;;;14.50;99.90;;;;;;5041754;28;20103;-58
2022/10/15 10:50:34;;;;;;;32.05;22.25;;;14.70;99.90;;;;;;5052416;28;20052;-58
2022/10/15 10:53:23;;;;;;;33.30;22.67;;;15.10;99.90;;;;;;5052577;28;20115;-58
2022/10/15 10:55:52;;;;;;;29.13;20.88;;;15.20;99.90;;;;;;5052385;28;20446;-58
2022/10/15 10:58:20;;;;;;;28.90;21.02;;;14.80;99.90;;;;;;5052654;28;20106;-58
2022/10/15 11:00:51;;;;;;;26.05;19.27;;;15.60;99.90;;;;;;5052070;28;20119;-58
2022/10/15 11:03:29;;;;;;;25.23;18.83;;;15.70;99.90;;;;;;5052930;28;20115;-58
2022/10/15 11:06:18;;;;;;;27.10;19.20;;;15.70;99.90;;;;;;5052750;28;20452;-59
2022/10/15 11:09:06;;;;;;;27.20;19.42;;;15.10;99.90;;;;;;5010424;28;20046;-59
2022/10/15 11:12:04;;;;;;;25.08;18.30;;;15.30;99.90;;;;;;5010535;28;20049;-59
2022/10/15 11:15:03;;;;;;;26.40;18.20;;;15.30;99.90;;;;;;5009756;28;20058;-59
2022/10/15 11:18:03;;;;;;;25.77;17.83;;;15.30;99.90;;;;;;5010264;28;20046;-59
2022/10/15 11:20:46;;;;;;;23.75;17.60;;;14.80;99.90;;;;;;5009265;28;20089;-64
2022/10/15 11:23:49;;;;;;;24.55;18.00;;;15.40;99.90;;;;;;5010423;28;20129;-64
2022/10/15 11:26:47;;;;;;;25.67;17.83;;;15.30;99.90;;;;;;5010272;28;20541;-64
2022/10/15 11:29:31;;;;;;;24.73;17.48;;;15.20;99.90;;;;;;5010365;28;20088;-66
2022/10/15 11:31:56;;;;;;;24.80;17.83;;;15.20;99.90;;;;;;4993655;28;20212;-65
2022/10/15 11:34:53;;;;;;;23.25;17.13;;;15.50;99.90;;;;;;5010250;28;20125;-64
2022/10/15 11:37:38;;;;;;;22.92;16.60;;;15.00;99.90;;;;;;5010369;28;20077;-65
2022/10/15 11:40:04;;;;;;;22.77;15.77;;;15.20;99.90;;;;;;5009847;28;20064;-64
2022/10/15 11:42:55;;;;;;;23.08;16.77;;;15.10;99.90;;;;;;5010711;28;20069;-64
2022/10/15 11:45:42;;;;;;;19.70;15.10;;;15.30;99.90;;;;;;5024942;28;20045;-64
2022/10/15 11:48:36;;;;;;;18.77;13.43;;;15.20;99.90;;;;;;5052700;28;20065;-65
2022/10/15 11:51:22;;;;;;;18.92;13.02;;;15.60;99.90;;;;;;5053033;28;20166;-64
2022/10/15 11:54:19;;;;;;;18.73;13.93;;;15.40;99.90;;;;;;5052588;28;20037;-64
2022/10/15 11:56:49;;;;;;;21.30;14.43;;;15.10;99.90;;;;;;5051622;28;20048;-64
2022/10/15 11:59:39;;;;;;;18.05;13.35;;;15.40;99.90;;;;;;5052409;28;20048;-65
2022/10/15 12:02:12;;;;;;;18.58;13.73;;;15.20;99.90;;;;;;5053804;28;20037;-64
2022/10/15 12:04:55;;;;;;;23.52;15.15;;;15.60;99.90;;;;;;5056008;28;20033;-64
2022/10/15 12:07:40;;;;;;;23.25;15.48;;;15.70;99.90;;;;;;5055207;28;20112;-64
2022/10/15 12:10:29;;;;;;;21.35;15.30;;;15.80;99.90;;;;;;5056141;28;20045;-64
2022/10/15 12:13:10;;;;;;;29.67;16.70;;;15.50;99.90;;;;;;5056635;28;20116;-64
2022/10/15 12:15:47;;;;;;;24.10;15.50;;;15.80;99.90;;;;;;5056739;28;20404;-64
2022/10/15 12:18:56;;;;;;;24.42;15.15;;;15.70;99.90;;;;;;5056568;28;20040;-64
2022/10/15 12:21:42;;;;;;;25.95;16.17;;;15.90;99.90;;;;;;5014569;28;20042;-64
2022/10/15 12:24:28;;;;;;;;;;;15.70;99.90;;;;;;5014905;28;20050;-64
2022/10/15 12:26:54;;;;;;;23.02;15.95;;;;;;;;;;5000661;28;19917;-64
2022/10/15 12:29:22;;;;;;;27.83;17.38;;;15.90;99.90;;;;;;5014436;28;20430;-64
2022/10/15 12:31:55;;;;;;;25.55;17.35;;;15.70;99.90;;;;;;5009167;28;20418;-64
2022/10/15 12:34:38;;;;;;;27.60;17.40;;;15.70;99.90;;;;;;4994720;28;20104;-64
2022/10/15 12:37:14;;;;;;;30.23;18.15;;;15.70;99.90;;;;;;4994646;28;20402;-64
2022/10/15 12:39:42;;;;;;;27.77;19.05;;;15.70;99.90;;;;;;4994542;28;20050;-65
2022/10/15 12:42:29;;;;;;;29.98;18.85;;;15.60;99.90;;;;;;4994389;28;20038;-64
2022/10/15 12:44:57;;;;;;;31.25;19.92;;;15.40;99.90;;;;;;4994730;28;20046;-64
2022/10/15 12:47:44;;;;;;;34.25;21.80;;;15.40;99.90;;;;;;4994525;28;20046;-65
2022/10/15 12:50:18;;;;;;;36.53;21.55;;;15.40;99.90;;;;;;4994455;28;20141;-65
2022/10/15 12:53:33;;;;;;;36.53;21.90;;;15.30;99.90;;;;;;5022937;28;20064;-66
2022/10/15 12:56:10;;;;;;;36.13;22.08;;;15.50;99.90;;;;;;5026143;28;20375;-65
2022/10/15 12:58:48;;;;;;;37.05;22.85;;;15.40;99.90;;;;;;5035542;28;20091;-65